sensor_id;sensor_type;location;lat;lon;timestamp;temperature;humidity
65766;SHT31;52915;53.718;19.946;2022-12-18T00:04:23;-3.25;82.85
65766;SHT31;52915;53.718;19.946;2022-12-18T00:09:28;-3.31;82.80
65766;SHT31;52915;53.718;19.946;2022-12-18T00:14:41;-3.32;82.89
65766;SHT31;52915;53.718;19.946;2022-12-18T00:19:46;-3.26;82.82
65766;SHT31;52915;53.718;19.946;2022-12-18T00:24:49;-3.16;82.68
65766;SHT31;52915;53.718;19.946;2022-12-18T00:29:53;-3.06;82.55
65766;SHT31;52915;53.718;19.946;2022-12-18T00:34:57;-3.05;82.32
65766;SHT31;52915;53.718;19.946;2022-12-18T00:40:00;-3.17;82.40
65766;SHT31;52915;53.718;19.946;2022-12-18T00:45:06;-3.29;82.42
65766;SHT31;52915;53.718;19.946;2022-12-18T00:50:14;-3.38;82.34
65766;SHT31;52915;53.718;19.946;2022-12-18T00:55:19;-3.36;82.36
65766;SHT31;52915;53.718;19.946;2022-12-18T01:00:23;-3.37;82.29
65766;SHT31;52915;53.718;19.946;2022-12-18T01:05:27;-3.52;82.34
65766;SHT31;52915;53.718;19.946;2022-12-18T01:10:31;-3.64;82.64
65766;SHT31;52915;53.718;19.946;2022-12-18T01:15:35;-3.67;82.75
65766;SHT31;52915;53.718;19.946;2022-12-18T01:20:39;-3.74;82.83
65766;SHT31;52915;53.718;19.946;2022-12-18T01:25:43;-3.75;83.04
65766;SHT31;52915;53.718;19.946;2022-12-18T01:30:46;-4.04;83.22
65766;SHT31;52915;53.718;19.946;2022-12-18T01:35:50;-4.10;83.73
65766;SHT31;52915;53.718;19.946;2022-12-18T01:40:58;-4.12;83.91
65766;SHT31;52915;53.718;19.946;2022-12-18T01:46:03;-3.99;83.69
65766;SHT31;52915;53.718;19.946;2022-12-18T01:51:08;-3.96;83.41
65766;SHT31;52915;53.718;19.946;2022-12-18T02:01:27;-4.07;83.74
65766;SHT31;52915;53.718;19.946;2022-12-18T02:06:34;-4.16;84.09
65766;SHT31;52915;53.718;19.946;2022-12-18T02:17:05;-4.09;83.81
65766;SHT31;52915;53.718;19.946;2022-12-18T02:22:33;-4.40;84.03
65766;SHT31;52915;53.718;19.946;2022-12-18T02:27:59;-4.43;84.39
65766;SHT31;52915;53.718;19.946;2022-12-18T02:33:09;-4.42;84.65
65766;SHT31;52915;53.718;19.946;2022-12-18T02:38:16;-4.33;84.67
65766;SHT31;52915;53.718;19.946;2022-12-18T02:43:20;-4.46;84.54
65766;SHT31;52915;53.718;19.946;2022-12-18T02:48:32;-4.52;84.56
65766;SHT31;52915;53.718;19.946;2022-12-18T02:53:50;-4.48;84.69
65766;SHT31;52915;53.718;19.946;2022-12-18T02:59:05;-4.64;84.39
65766;SHT31;52915;53.718;19.946;2022-12-18T03:09:57;-4.62;84.46
65766;SHT31;52915;53.718;19.946;2022-12-18T03:15:09;-4.80;84.33
65766;SHT31;52915;53.718;19.946;2022-12-18T03:20:30;-4.90;84.50
65766;SHT31;52915;53.718;19.946;2022-12-18T03:25:39;-4.88;84.46
65766;SHT31;52915;53.718;19.946;2022-12-18T03:30:47;-4.89;84.29
65766;SHT31;52915;53.718;19.946;2022-12-18T03:35:59;-4.92;84.51
65766;SHT31;52915;53.718;19.946;2022-12-18T03:46:27;-5.19;85.67
65766;SHT31;52915;53.718;19.946;2022-12-18T03:52:03;-5.15;85.93
65766;SHT31;52915;53.718;19.946;2022-12-18T03:57:16;-4.97;85.93
65766;SHT31;52915;53.718;19.946;2022-12-18T04:02:25;-5.02;85.86
65766;SHT31;52915;53.718;19.946;2022-12-18T04:07:29;-5.19;86.08
65766;SHT31;52915;53.718;19.946;2022-12-18T04:12:33;-5.22;86.44
65766;SHT31;52915;53.718;19.946;2022-12-18T04:17:38;-5.17;86.18
65766;SHT31;52915;53.718;19.946;2022-12-18T04:22:52;-5.28;85.89
65766;SHT31;52915;53.718;19.946;2022-12-18T04:27:56;-5.41;86.36
65766;SHT31;52915;53.718;19.946;2022-12-18T04:33:00;-5.39;86.57
65766;SHT31;52915;53.718;19.946;2022-12-18T04:38:05;-5.47;86.90
65766;SHT31;52915;53.718;19.946;2022-12-18T04:43:11;-5.42;87.34
65766;SHT31;52915;53.718;19.946;2022-12-18T04:48:15;-5.29;87.52
65766;SHT31;52915;53.718;19.946;2022-12-18T04:53:19;-5.16;87.34
65766;SHT31;52915;53.718;19.946;2022-12-18T04:58:23;-5.09;87.39
65766;SHT31;52915;53.718;19.946;2022-12-18T05:03:27;-4.97;87.57
65766;SHT31;52915;53.718;19.946;2022-12-18T05:08:31;-4.84;87.87
65766;SHT31;52915;53.718;19.946;2022-12-18T05:13:36;-4.82;88.54
65766;SHT31;52915;53.718;19.946;2022-12-18T05:18:41;-4.54;88.71
65766;SHT31;52915;53.718;19.946;2022-12-18T05:23:45;-4.36;88.51
65766;SHT31;52915;53.718;19.946;2022-12-18T05:28:49;-4.27;88.37
65766;SHT31;52915;53.718;19.946;2022-12-18T05:33:53;-4.23;88.46
65766;SHT31;52915;53.718;19.946;2022-12-18T05:38:57;-4.24;88.60
65766;SHT31;52915;53.718;19.946;2022-12-18T05:44:01;-4.16;88.59
65766;SHT31;52915;53.718;19.946;2022-12-18T05:49:05;-4.05;88.56
65766;SHT31;52915;53.718;19.946;2022-12-18T05:54:08;-3.98;88.63
65766;SHT31;52915;53.718;19.946;2022-12-18T05:59:12;-3.91;88.63
65766;SHT31;52915;53.718;19.946;2022-12-18T06:04:16;-3.84;88.63
65766;SHT31;52915;53.718;19.946;2022-12-18T06:14:54;-3.56;88.41
65766;SHT31;52915;53.718;19.946;2022-12-18T06:19:58;-3.47;88.49
65766;SHT31;52915;53.718;19.946;2022-12-18T06:25:04;-3.39;88.36
65766;SHT31;52915;53.718;19.946;2022-12-18T06:30:10;-3.39;88.50
65766;SHT31;52915;53.718;19.946;2022-12-18T06:35:15;-3.35;88.61
65766;SHT31;52915;53.718;19.946;2022-12-18T06:40:20;-3.35;88.70
65766;SHT31;52915;53.718;19.946;2022-12-18T06:45:26;-3.32;88.69
65766;SHT31;52915;53.718;19.946;2022-12-18T06:50:30;-3.28;88.62
65766;SHT31;52915;53.718;19.946;2022-12-18T06:55:34;-3.26;88.57
65766;SHT31;52915;53.718;19.946;2022-12-18T07:00:38;-3.27;88.52
65766;SHT31;52915;53.718;19.946;2022-12-18T07:05:42;-3.15;88.43
65766;SHT31;52915;53.718;19.946;2022-12-18T07:10:45;-3.12;88.02
65766;SHT31;52915;53.718;19.946;2022-12-18T07:16:11;-3.21;88.10
65766;SHT31;52915;53.718;19.946;2022-12-18T07:21:27;-3.17;88.04
65766;SHT31;52915;53.718;19.946;2022-12-18T07:26:31;-3.12;87.76
65766;SHT31;52915;53.718;19.946;2022-12-18T07:31:34;-2.98;87.57
65766;SHT31;52915;53.718;19.946;2022-12-18T07:36:39;-2.88;87.14
65766;SHT31;52915;53.718;19.946;2022-12-18T07:41:43;-2.88;86.91
65766;SHT31;52915;53.718;19.946;2022-12-18T07:47:07;-2.87;86.60
65766;SHT31;52915;53.718;19.946;2022-12-18T07:52:14;-2.81;86.61
65766;SHT31;52915;53.718;19.946;2022-12-18T07:57:23;-2.66;86.34
65766;SHT31;52915;53.718;19.946;2022-12-18T08:02:47;-2.63;85.81
65766;SHT31;52915;53.718;19.946;2022-12-18T08:07:52;-2.55;85.53
65766;SHT31;52915;53.718;19.946;2022-12-18T08:12:56;-2.47;85.10
65766;SHT31;52915;53.718;19.946;2022-12-18T08:18:06;-2.41;84.54
65766;SHT31;52915;53.718;19.946;2022-12-18T08:23:16;-2.39;84.21
65766;SHT31;52915;53.718;19.946;2022-12-18T08:28:20;-2.04;83.50
65766;SHT31;52915;53.718;19.946;2022-12-18T08:33:24;-1.45;82.29
65766;SHT31;52915;53.718;19.946;2022-12-18T08:38:29;-0.09;78.78
65766;SHT31;52915;53.718;19.946;2022-12-18T08:43:34;-0.03;76.97
65766;SHT31;52915;53.718;19.946;2022-12-18T08:48:57;-0.16;77.08
65766;SHT31;52915;53.718;19.946;2022-12-18T08:54:02;-0.17;76.54
65766;SHT31;52915;53.718;19.946;2022-12-18T08:59:08;-0.59;77.28
65766;SHT31;52915;53.718;19.946;2022-12-18T09:04:21;-0.97;77.60
65766;SHT31;52915;53.718;19.946;2022-12-18T09:09:25;-1.25;77.99
65766;SHT31;52915;53.718;19.946;2022-12-18T09:14:30;-1.51;78.22
65766;SHT31;52915;53.718;19.946;2022-12-18T09:19:34;-1.75;78.82
65766;SHT31;52915;53.718;19.946;2022-12-18T09:24:38;-1.72;78.99
65766;SHT31;52915;53.718;19.946;2022-12-18T09:29:42;-1.58;78.57
65766;SHT31;52915;53.718;19.946;2022-12-18T09:34:46;-1.67;78.63
65766;SHT31;52915;53.718;19.946;2022-12-18T09:39:57;-1.71;78.86
65766;SHT31;52915;53.718;19.946;2022-12-18T09:45:01;-1.62;78.90
65766;SHT31;52915;53.718;19.946;2022-12-18T09:50:30;-1.46;78.82
65766;SHT31;52915;53.718;19.946;2022-12-18T09:55:42;-0.88;78.10
65766;SHT31;52915;53.718;19.946;2022-12-18T10:00:51;-0.04;76.00
65766;SHT31;52915;53.718;19.946;2022-12-18T10:22:30;8.51;52.78
65766;SHT31;52915;53.718;19.946;2022-12-18T10:27:44;8.18;50.54
65766;SHT31;52915;53.718;19.946;2022-12-18T10:32:49;5.75;52.34
65766;SHT31;52915;53.718;19.946;2022-12-18T10:43:23;4.43;56.75
65766;SHT31;52915;53.718;19.946;2022-12-18T10:48:47;5.18;55.66
65766;SHT31;52915;53.718;19.946;2022-12-18T10:54:35;6.38;51.86
65766;SHT31;52915;53.718;19.946;2022-12-18T10:59:35;7.76;50.24
65766;SHT31;52915;53.718;19.946;2022-12-18T11:04:59;8.23;48.20
65766;SHT31;52915;53.718;19.946;2022-12-18T11:10:05;8.24;48.49
65766;SHT31;52915;53.718;19.946;2022-12-18T11:15:26;8.54;47.38
65766;SHT31;52915;53.718;19.946;2022-12-18T11:20:36;8.92;46.04
65766;SHT31;52915;53.718;19.946;2022-12-18T11:25:50;9.10;45.69
65766;SHT31;52915;53.718;19.946;2022-12-18T11:36:28;9.54;43.67
65766;SHT31;52915;53.718;19.946;2022-12-18T11:41:45;9.77;44.58
65766;SHT31;52915;53.718;19.946;2022-12-18T11:52:41;10.28;43.24
65766;SHT31;52915;53.718;19.946;2022-12-18T11:57:49;10.29;43.06
65766;SHT31;52915;53.718;19.946;2022-12-18T12:09:21;10.20;42.72
65766;SHT31;52915;53.718;19.946;2022-12-18T12:15:03;10.09;43.31
65766;SHT31;52915;53.718;19.946;2022-12-18T12:42:59;5.82;50.31
65766;SHT31;52915;53.718;19.946;2022-12-18T12:48:17;4.44;52.54
65766;SHT31;52915;53.718;19.946;2022-12-18T12:53:38;3.03;55.63
65766;SHT31;52915;53.718;19.946;2022-12-18T13:04:50;1.84;59.53
65766;SHT31;52915;53.718;19.946;2022-12-18T13:10:24;2.16;59.24
65766;SHT31;52915;53.718;19.946;2022-12-18T13:15:42;2.40;58.52
65766;SHT31;52915;53.718;19.946;2022-12-18T13:20:51;2.54;58.54
65766;SHT31;52915;53.718;19.946;2022-12-18T13:36:45;2.44;58.65
65766;SHT31;52915;53.718;19.946;2022-12-18T13:41:54;1.58;60.47
65766;SHT31;52915;53.718;19.946;2022-12-18T13:47:35;0.51;62.70
65766;SHT31;52915;53.718;19.946;2022-12-18T13:52:41;-0.30;64.89
65766;SHT31;52915;53.718;19.946;2022-12-18T13:57:46;-1.05;66.79
65766;SHT31;52915;53.718;19.946;2022-12-18T14:02:51;-1.74;69.28
65766;SHT31;52915;53.718;19.946;2022-12-18T14:07:59;-2.49;71.37
65766;SHT31;52915;53.718;19.946;2022-12-18T14:13:19;-2.93;73.31
65766;SHT31;52915;53.718;19.946;2022-12-18T14:18:46;-3.39;75.53
65766;SHT31;52915;53.718;19.946;2022-12-18T14:24:20;-3.47;76.71
65766;SHT31;52915;53.718;19.946;2022-12-18T14:29:29;-3.65;78.10
65766;SHT31;52915;53.718;19.946;2022-12-18T14:34:34;-3.67;79.11
65766;SHT31;52915;53.718;19.946;2022-12-18T14:39:38;-3.76;79.57
65766;SHT31;52915;53.718;19.946;2022-12-18T14:44:43;-3.64;79.64
65766;SHT31;52915;53.718;19.946;2022-12-18T14:50:12;-3.60;79.19
65766;SHT31;52915;53.718;19.946;2022-12-18T14:55:19;-3.72;79.58
65766;SHT31;52915;53.718;19.946;2022-12-18T15:00:25;-3.78;79.94
65766;SHT31;52915;53.718;19.946;2022-12-18T15:05:31;-3.86;80.68
65766;SHT31;52915;53.718;19.946;2022-12-18T15:10:45;-3.66;80.19
65766;SHT31;52915;53.718;19.946;2022-12-18T15:15:51;-3.62;79.76
65766;SHT31;52915;53.718;19.946;2022-12-18T15:21:00;-3.65;79.92
65766;SHT31;52915;53.718;19.946;2022-12-18T15:26:14;-3.64;80.13
65766;SHT31;52915;53.718;19.946;2022-12-18T15:36:42;-3.57;80.23
65766;SHT31;52915;53.718;19.946;2022-12-18T15:42:25;-3.82;81.07
65766;SHT31;52915;53.718;19.946;2022-12-18T15:53:53;-3.80;81.74
65766;SHT31;52915;53.718;19.946;2022-12-18T15:59:01;-3.82;81.82
65766;SHT31;52915;53.718;19.946;2022-12-18T16:04:08;-3.80;81.93
65766;SHT31;52915;53.718;19.946;2022-12-18T16:09:17;-3.88;82.20
65766;SHT31;52915;53.718;19.946;2022-12-18T16:14:44;-4.01;82.64
65766;SHT31;52915;53.718;19.946;2022-12-18T16:19:49;-3.98;82.76
65766;SHT31;52915;53.718;19.946;2022-12-18T16:24:54;-4.00;82.78
65766;SHT31;52915;53.718;19.946;2022-12-18T16:30:25;-3.94;82.79
65766;SHT31;52915;53.718;19.946;2022-12-18T16:35:42;-3.87;82.39
65766;SHT31;52915;53.718;19.946;2022-12-18T16:41:45;-4.01;82.93
65766;SHT31;52915;53.718;19.946;2022-12-18T16:46:49;-4.04;83.07
65766;SHT31;52915;53.718;19.946;2022-12-18T16:51:55;-4.04;83.10
65766;SHT31;52915;53.718;19.946;2022-12-18T16:57:21;-3.98;83.04
65766;SHT31;52915;53.718;19.946;2022-12-18T17:02:27;-3.91;82.68
65766;SHT31;52915;53.718;19.946;2022-12-18T17:07:31;-4.03;82.99
65766;SHT31;52915;53.718;19.946;2022-12-18T17:12:36;-4.05;83.13
65766;SHT31;52915;53.718;19.946;2022-12-18T17:17:43;-3.93;82.88
65766;SHT31;52915;53.718;19.946;2022-12-18T17:22:47;-3.82;82.57
65766;SHT31;52915;53.718;19.946;2022-12-18T17:27:51;-3.87;82.39
65766;SHT31;52915;53.718;19.946;2022-12-18T17:32:55;-3.96;82.72
65766;SHT31;52915;53.718;19.946;2022-12-18T17:37:59;-4.13;83.31
65766;SHT31;52915;53.718;19.946;2022-12-18T17:43:03;-4.22;83.71
65766;SHT31;52915;53.718;19.946;2022-12-18T17:48:08;-4.32;84.20
65766;SHT31;52915;53.718;19.946;2022-12-18T17:53:13;-4.39;84.04
65766;SHT31;52915;53.718;19.946;2022-12-18T17:58:17;-4.37;84.00
65766;SHT31;52915;53.718;19.946;2022-12-18T18:03:21;-4.37;84.00
65766;SHT31;52915;53.718;19.946;2022-12-18T18:08:28;-4.43;84.32
65766;SHT31;52915;53.718;19.946;2022-12-18T18:13:34;-4.40;84.09
65766;SHT31;52915;53.718;19.946;2022-12-18T18:19:02;-4.51;84.04
65766;SHT31;52915;53.718;19.946;2022-12-18T18:24:12;-4.56;83.97
65766;SHT31;52915;53.718;19.946;2022-12-18T18:29:19;-4.54;83.71
65766;SHT31;52915;53.718;19.946;2022-12-18T18:34:30;-4.51;83.71
65766;SHT31;52915;53.718;19.946;2022-12-18T18:39:38;-4.52;83.69
65766;SHT31;52915;53.718;19.946;2022-12-18T18:44:43;-4.52;83.58
65766;SHT31;52915;53.718;19.946;2022-12-18T18:49:51;-4.57;83.25
65766;SHT31;52915;53.718;19.946;2022-12-18T18:54:56;-4.73;83.14
65766;SHT31;52915;53.718;19.946;2022-12-18T19:00:16;-4.90;83.11
65766;SHT31;52915;53.718;19.946;2022-12-18T19:05:21;-4.99;83.28
65766;SHT31;52915;53.718;19.946;2022-12-18T19:10:25;-5.17;83.43
65766;SHT31;52915;53.718;19.946;2022-12-18T19:15:31;-5.24;83.63
65766;SHT31;52915;53.718;19.946;2022-12-18T19:20:36;-5.33;83.57
65766;SHT31;52915;53.718;19.946;2022-12-18T19:25:41;-5.39;83.48
65766;SHT31;52915;53.718;19.946;2022-12-18T19:31:02;-5.47;83.39
65766;SHT31;52915;53.718;19.946;2022-12-18T19:41:27;-5.73;83.61
65766;SHT31;52915;53.718;19.946;2022-12-18T19:46:35;-5.74;83.47
65766;SHT31;52915;53.718;19.946;2022-12-18T19:51:44;-5.87;83.56
65766;SHT31;52915;53.718;19.946;2022-12-18T19:56:48;-6.00;83.78
65766;SHT31;52915;53.718;19.946;2022-12-18T20:01:52;-6.10;83.99
65766;SHT31;52915;53.718;19.946;2022-12-18T20:06:56;-6.06;84.00
65766;SHT31;52915;53.718;19.946;2022-12-18T20:12:01;-6.15;83.87
65766;SHT31;52915;53.718;19.946;2022-12-18T20:17:06;-6.27;84.17
65766;SHT31;52915;53.718;19.946;2022-12-18T20:22:11;-6.40;84.44
65766;SHT31;52915;53.718;19.946;2022-12-18T20:27:16;-6.36;84.53
65766;SHT31;52915;53.718;19.946;2022-12-18T20:32:22;-6.48;84.32
65766;SHT31;52915;53.718;19.946;2022-12-18T20:37:25;-6.62;84.44
65766;SHT31;52915;53.718;19.946;2022-12-18T20:42:29;-6.64;84.38
65766;SHT31;52915;53.718;19.946;2022-12-18T20:47:37;-6.64;84.17
65766;SHT31;52915;53.718;19.946;2022-12-18T20:52:42;-6.70;84.00
65766;SHT31;52915;53.718;19.946;2022-12-18T20:57:47;-6.69;83.85
65766;SHT31;52915;53.718;19.946;2022-12-18T21:02:51;-6.57;83.63
65766;SHT31;52915;53.718;19.946;2022-12-18T21:07:56;-6.66;83.39
65766;SHT31;52915;53.718;19.946;2022-12-18T21:13:00;-6.68;82.93
65766;SHT31;52915;53.718;19.946;2022-12-18T21:18:08;-6.72;82.86
65766;SHT31;52915;53.718;19.946;2022-12-18T21:23:12;-6.74;82.89
65766;SHT31;52915;53.718;19.946;2022-12-18T21:28:18;-6.83;82.99
65766;SHT31;52915;53.718;19.946;2022-12-18T21:33:22;-6.84;83.19
65766;SHT31;52915;53.718;19.946;2022-12-18T21:38:26;-6.78;83.10
65766;SHT31;52915;53.718;19.946;2022-12-18T21:43:30;-6.86;82.92
65766;SHT31;52915;53.718;19.946;2022-12-18T21:49:04;-6.99;83.23
65766;SHT31;52915;53.718;19.946;2022-12-18T21:54:10;-7.09;83.34
65766;SHT31;52915;53.718;19.946;2022-12-18T21:59:24;-7.10;83.63
65766;SHT31;52915;53.718;19.946;2022-12-18T22:04:30;-7.10;83.36
65766;SHT31;52915;53.718;19.946;2022-12-18T22:09:34;-7.20;83.97
65766;SHT31;52915;53.718;19.946;2022-12-18T22:14:38;-7.09;84.21
65766;SHT31;52915;53.718;19.946;2022-12-18T22:19:42;-6.98;83.72
65766;SHT31;52915;53.718;19.946;2022-12-18T22:24:45;-6.95;83.71
65766;SHT31;52915;53.718;19.946;2022-12-18T22:29:49;-6.93;83.65
65766;SHT31;52915;53.718;19.946;2022-12-18T22:35:08;-6.92;83.40
65766;SHT31;52915;53.718;19.946;2022-12-18T22:40:18;-7.00;83.43
65766;SHT31;52915;53.718;19.946;2022-12-18T22:45:31;-7.00;83.32
65766;SHT31;52915;53.718;19.946;2022-12-18T22:50:39;-6.98;83.21
65766;SHT31;52915;53.718;19.946;2022-12-18T22:55:43;-7.03;82.99
65766;SHT31;52915;53.718;19.946;2022-12-18T23:00:47;-7.07;83.06
65766;SHT31;52915;53.718;19.946;2022-12-18T23:05:50;-7.00;82.93
65766;SHT31;52915;53.718;19.946;2022-12-18T23:10:56;-7.02;82.68
65766;SHT31;52915;53.718;19.946;2022-12-18T23:16:03;-6.97;82.56
65766;SHT31;52915;53.718;19.946;2022-12-18T23:21:14;-7.03;82.36
65766;SHT31;52915;53.718;19.946;2022-12-18T23:26:22;-6.96;82.28
65766;SHT31;52915;53.718;19.946;2022-12-18T23:31:28;-6.91;81.95
65766;SHT31;52915;53.718;19.946;2022-12-18T23:36:38;-6.97;81.92
65766;SHT31;52915;53.718;19.946;2022-12-18T23:41:47;-6.96;82.01
65766;SHT31;52915;53.718;19.946;2022-12-18T23:46:51;-6.91;81.90
65766;SHT31;52915;53.718;19.946;2022-12-18T23:51:55;-6.85;81.91
65766;SHT31;52915;53.718;19.946;2022-12-18T23:56:59;-6.72;81.82
